sensor_id;sensor_type;location;lat;lon;timestamp;temperature;humidity
9847;DHT22;4962;50.084;8.794;2022-12-18T00:02:25;0.70;99.90
9847;DHT22;4962;50.084;8.794;2022-12-18T00:04:52;0.70;99.90
9847;DHT22;4962;50.084;8.794;2022-12-18T00:07:19;0.60;99.90
9847;DHT22;4962;50.084;8.794;2022-12-18T00:09:45;0.60;99.90
9847;DHT22;4962;50.084;8.794;2022-12-18T00:12:15;0.50;99.90
9847;DHT22;4962;50.084;8.794;2022-12-18T00:14:44;0.50;99.90
9847;DHT22;4962;50.084;8.794;2022-12-18T00:17:11;0.50;99.90
9847;DHT22;4962;50.084;8.794;2022-12-18T00:19:39;0.60;99.90
9847;DHT22;4962;50.084;8.794;2022-12-18T00:22:06;0.60;99.90
9847;DHT22;4962;50.084;8.794;2022-12-18T00:24:36;0.60;99.90
9847;DHT22;4962;50.084;8.794;2022-12-18T00:27:02;0.60;99.90
9847;DHT22;4962;50.084;8.794;2022-12-18T00:29:29;0.60;99.90
9847;DHT22;4962;50.084;8.794;2022-12-18T00:31:56;0.60;99.90
9847;DHT22;4962;50.084;8.794;2022-12-18T00:34:23;0.60;99.90
9847;DHT22;4962;50.084;8.794;2022-12-18T00:36:51;0.60;99.90
9847;DHT22;4962;50.084;8.794;2022-12-18T00:39:18;0.60;99.90
9847;DHT22;4962;50.084;8.794;2022-12-18T00:41:46;0.60;99.90
9847;DHT22;4962;50.084;8.794;2022-12-18T00:44:31;0.70;99.90
9847;DHT22;4962;50.084;8.794;2022-12-18T00:46:57;0.60;99.90
9847;DHT22;4962;50.084;8.794;2022-12-18T00:49:24;0.60;99.90
9847;DHT22;4962;50.084;8.794;2022-12-18T00:51:53;0.60;99.90
9847;DHT22;4962;50.084;8.794;2022-12-18T00:54:20;0.60;99.90
9847;DHT22;4962;50.084;8.794;2022-12-18T00:56:47;0.60;99.90
9847;DHT22;4962;50.084;8.794;2022-12-18T00:59:13;0.60;99.90
9847;DHT22;4962;50.084;8.794;2022-12-18T01:01:40;0.50;99.90
9847;DHT22;4962;50.084;8.794;2022-12-18T01:04:07;0.50;99.90
9847;DHT22;4962;50.084;8.794;2022-12-18T01:06:34;0.50;99.90
9847;DHT22;4962;50.084;8.794;2022-12-18T01:09:03;0.50;99.90
9847;DHT22;4962;50.084;8.794;2022-12-18T01:11:30;0.60;99.90
9847;DHT22;4962;50.084;8.794;2022-12-18T01:13:57;0.60;99.90
9847;DHT22;4962;50.084;8.794;2022-12-18T01:16:24;0.60;99.90
9847;DHT22;4962;50.084;8.794;2022-12-18T01:18:52;0.60;99.90
9847;DHT22;4962;50.084;8.794;2022-12-18T01:21:20;0.60;99.90
9847;DHT22;4962;50.084;8.794;2022-12-18T01:23:51;0.70;99.90
9847;DHT22;4962;50.084;8.794;2022-12-18T01:26:20;0.60;99.90
9847;DHT22;4962;50.084;8.794;2022-12-18T01:28:48;0.60;99.90
9847;DHT22;4962;50.084;8.794;2022-12-18T01:31:18;0.60;99.90
9847;DHT22;4962;50.084;8.794;2022-12-18T01:33:45;0.50;99.90
9847;DHT22;4962;50.084;8.794;2022-12-18T01:36:17;0.50;99.90
9847;DHT22;4962;50.084;8.794;2022-12-18T01:38:45;0.40;99.90
9847;DHT22;4962;50.084;8.794;2022-12-18T01:41:18;0.40;99.90
9847;DHT22;4962;50.084;8.794;2022-12-18T01:43:49;0.30;99.90
9847;DHT22;4962;50.084;8.794;2022-12-18T01:46:17;0.30;99.90
9847;DHT22;4962;50.084;8.794;2022-12-18T01:48:48;0.20;99.90
9847;DHT22;4962;50.084;8.794;2022-12-18T01:51:15;0.20;99.90
9847;DHT22;4962;50.084;8.794;2022-12-18T01:53:44;0.20;99.90
9847;DHT22;4962;50.084;8.794;2022-12-18T01:56:14;0.20;99.90
9847;DHT22;4962;50.084;8.794;2022-12-18T01:58:48;0.20;99.90
9847;DHT22;4962;50.084;8.794;2022-12-18T02:01:17;0.20;99.90
9847;DHT22;4962;50.084;8.794;2022-12-18T02:03:44;0.10;99.90
9847;DHT22;4962;50.084;8.794;2022-12-18T02:06:15;0.10;99.90
9847;DHT22;4962;50.084;8.794;2022-12-18T02:08:49;0.00;99.90
9847;DHT22;4962;50.084;8.794;2022-12-18T02:11:24;0.00;99.90
9847;DHT22;4962;50.084;8.794;2022-12-18T02:14:02;0.10;99.90
9847;DHT22;4962;50.084;8.794;2022-12-18T02:16:38;0.10;99.90
9847;DHT22;4962;50.084;8.794;2022-12-18T02:19:14;0.10;99.90
9847;DHT22;4962;50.084;8.794;2022-12-18T02:21:48;0.10;99.90
9847;DHT22;4962;50.084;8.794;2022-12-18T02:24:26;0.10;99.90
9847;DHT22;4962;50.084;8.794;2022-12-18T02:26:59;0.10;99.90
9847;DHT22;4962;50.084;8.794;2022-12-18T02:29:31;0.10;99.90
9847;DHT22;4962;50.084;8.794;2022-12-18T02:31:59;0.10;99.90
9847;DHT22;4962;50.084;8.794;2022-12-18T02:34:29;0.20;99.90
9847;DHT22;4962;50.084;8.794;2022-12-18T02:36:59;0.20;99.90
9847;DHT22;4962;50.084;8.794;2022-12-18T02:39:28;0.10;99.90
9847;DHT22;4962;50.084;8.794;2022-12-18T02:41:57;0.10;99.90
9847;DHT22;4962;50.084;8.794;2022-12-18T02:44:27;0.10;99.90
9847;DHT22;4962;50.084;8.794;2022-12-18T02:46:54;0.10;99.90
9847;DHT22;4962;50.084;8.794;2022-12-18T02:49:28;0.00;99.90
9847;DHT22;4962;50.084;8.794;2022-12-18T02:52:07;0.00;99.90
9847;DHT22;4962;50.084;8.794;2022-12-18T02:54:49;0.00;99.90
9847;DHT22;4962;50.084;8.794;2022-12-18T02:57:23;0.00;99.90
9847;DHT22;4962;50.084;8.794;2022-12-18T02:59:56;-0.10;99.90
9847;DHT22;4962;50.084;8.794;2022-12-18T03:02:29;-0.10;99.90
9847;DHT22;4962;50.084;8.794;2022-12-18T03:05:04;-0.10;99.90
9847;DHT22;4962;50.084;8.794;2022-12-18T03:07:38;-0.10;99.90
9847;DHT22;4962;50.084;8.794;2022-12-18T03:10:08;0.00;99.90
9847;DHT22;4962;50.084;8.794;2022-12-18T03:12:42;0.00;99.90
9847;DHT22;4962;50.084;8.794;2022-12-18T03:15:16;0.00;99.90
9847;DHT22;4962;50.084;8.794;2022-12-18T03:17:48;0.00;99.90
9847;DHT22;4962;50.084;8.794;2022-12-18T03:20:19;0.00;99.90
9847;DHT22;4962;50.084;8.794;2022-12-18T03:22:51;0.00;99.90
9847;DHT22;4962;50.084;8.794;2022-12-18T03:25:20;0.00;99.90
9847;DHT22;4962;50.084;8.794;2022-12-18T03:27:54;0.00;99.90
9847;DHT22;4962;50.084;8.794;2022-12-18T03:30:23;0.00;99.90
9847;DHT22;4962;50.084;8.794;2022-12-18T03:32:56;0.00;99.90
9847;DHT22;4962;50.084;8.794;2022-12-18T03:35:28;0.00;99.90
9847;DHT22;4962;50.084;8.794;2022-12-18T03:37:56;0.00;99.90
9847;DHT22;4962;50.084;8.794;2022-12-18T03:40:29;0.00;99.90
9847;DHT22;4962;50.084;8.794;2022-12-18T03:43:03;0.00;99.90
9847;DHT22;4962;50.084;8.794;2022-12-18T03:45:36;0.00;99.90
9847;DHT22;4962;50.084;8.794;2022-12-18T03:48:07;0.10;99.90
9847;DHT22;4962;50.084;8.794;2022-12-18T03:50:42;0.10;99.90
9847;DHT22;4962;50.084;8.794;2022-12-18T03:53:22;0.10;99.90
9847;DHT22;4962;50.084;8.794;2022-12-18T03:55:52;0.10;99.90
9847;DHT22;4962;50.084;8.794;2022-12-18T03:58:24;0.10;99.90
9847;DHT22;4962;50.084;8.794;2022-12-18T04:00:53;0.10;99.90
9847;DHT22;4962;50.084;8.794;2022-12-18T04:03:23;0.10;99.90
9847;DHT22;4962;50.084;8.794;2022-12-18T04:05:51;0.10;99.90
9847;DHT22;4962;50.084;8.794;2022-12-18T04:08:19;0.00;99.90
9847;DHT22;4962;50.084;8.794;2022-12-18T04:10:47;0.00;99.90
9847;DHT22;4962;50.084;8.794;2022-12-18T04:13:23;0.00;99.90
9847;DHT22;4962;50.084;8.794;2022-12-18T04:15:49;0.00;99.90
9847;DHT22;4962;50.084;8.794;2022-12-18T04:18:16;0.00;99.90
9847;DHT22;4962;50.084;8.794;2022-12-18T04:20:43;0.00;99.90
9847;DHT22;4962;50.084;8.794;2022-12-18T04:23:10;0.00;99.90
9847;DHT22;4962;50.084;8.794;2022-12-18T04:25:37;0.00;99.90
9847;DHT22;4962;50.084;8.794;2022-12-18T04:28:04;0.00;99.90
9847;DHT22;4962;50.084;8.794;2022-12-18T04:30:32;0.00;99.90
9847;DHT22;4962;50.084;8.794;2022-12-18T04:32:59;-0.10;99.90
9847;DHT22;4962;50.084;8.794;2022-12-18T04:35:26;-0.10;99.90
9847;DHT22;4962;50.084;8.794;2022-12-18T04:37:52;-0.10;99.90
9847;DHT22;4962;50.084;8.794;2022-12-18T04:40:19;-0.10;99.90
9847;DHT22;4962;50.084;8.794;2022-12-18T04:42:46;-0.10;99.90
9847;DHT22;4962;50.084;8.794;2022-12-18T04:45:13;-0.20;99.90
9847;DHT22;4962;50.084;8.794;2022-12-18T04:47:41;-0.10;99.90
9847;DHT22;4962;50.084;8.794;2022-12-18T04:50:09;-0.20;99.90
9847;DHT22;4962;50.084;8.794;2022-12-18T04:52:36;-0.10;99.90
9847;DHT22;4962;50.084;8.794;2022-12-18T04:55:03;-0.10;99.90
9847;DHT22;4962;50.084;8.794;2022-12-18T04:57:30;-0.10;99.90
9847;DHT22;4962;50.084;8.794;2022-12-18T04:59:57;-0.10;99.90
9847;DHT22;4962;50.084;8.794;2022-12-18T05:02:23;-0.10;99.90
9847;DHT22;4962;50.084;8.794;2022-12-18T05:04:52;-0.20;99.90
9847;DHT22;4962;50.084;8.794;2022-12-18T05:07:18;-0.20;99.90
9847;DHT22;4962;50.084;8.794;2022-12-18T05:09:48;-0.20;99.90
9847;DHT22;4962;50.084;8.794;2022-12-18T05:12:15;-0.30;99.90
9847;DHT22;4962;50.084;8.794;2022-12-18T05:14:42;-0.30;99.90
9847;DHT22;4962;50.084;8.794;2022-12-18T05:17:09;-0.30;99.90
9847;DHT22;4962;50.084;8.794;2022-12-18T05:19:36;-0.30;99.90
9847;DHT22;4962;50.084;8.794;2022-12-18T05:22:05;-0.30;99.90
9847;DHT22;4962;50.084;8.794;2022-12-18T05:24:31;-0.30;99.90
9847;DHT22;4962;50.084;8.794;2022-12-18T05:26:59;-0.30;99.90
9847;DHT22;4962;50.084;8.794;2022-12-18T05:29:26;-0.30;99.90
9847;DHT22;4962;50.084;8.794;2022-12-18T05:31:53;-0.30;99.90
9847;DHT22;4962;50.084;8.794;2022-12-18T05:34:20;-0.30;99.90
9847;DHT22;4962;50.084;8.794;2022-12-18T05:36:47;-0.30;99.90
9847;DHT22;4962;50.084;8.794;2022-12-18T05:39:16;-0.30;99.90
9847;DHT22;4962;50.084;8.794;2022-12-18T05:41:43;-0.30;99.90
9847;DHT22;4962;50.084;8.794;2022-12-18T05:44:10;-0.20;99.90
9847;DHT22;4962;50.084;8.794;2022-12-18T05:46:37;-0.20;99.90
9847;DHT22;4962;50.084;8.794;2022-12-18T05:49:07;-0.20;99.90
9847;DHT22;4962;50.084;8.794;2022-12-18T05:51:34;-0.20;99.90
9847;DHT22;4962;50.084;8.794;2022-12-18T05:54:01;-0.20;99.90
9847;DHT22;4962;50.084;8.794;2022-12-18T05:56:30;-0.10;99.90
9847;DHT22;4962;50.084;8.794;2022-12-18T05:58:57;-0.20;99.90
9847;DHT22;4962;50.084;8.794;2022-12-18T06:01:26;-0.10;99.90
9847;DHT22;4962;50.084;8.794;2022-12-18T06:03:53;-0.10;99.90
9847;DHT22;4962;50.084;8.794;2022-12-18T06:06:21;-0.10;99.90
9847;DHT22;4962;50.084;8.794;2022-12-18T06:08:49;-0.10;99.90
9847;DHT22;4962;50.084;8.794;2022-12-18T06:11:18;0.00;99.90
9847;DHT22;4962;50.084;8.794;2022-12-18T06:13:49;0.00;99.90
9847;DHT22;4962;50.084;8.794;2022-12-18T06:16:17;0.00;99.90
9847;DHT22;4962;50.084;8.794;2022-12-18T06:18:44;0.10;99.90
9847;DHT22;4962;50.084;8.794;2022-12-18T06:21:11;0.20;99.90
9847;DHT22;4962;50.084;8.794;2022-12-18T06:23:38;0.20;99.90
9847;DHT22;4962;50.084;8.794;2022-12-18T06:26:06;0.30;99.90
9847;DHT22;4962;50.084;8.794;2022-12-18T06:28:33;0.30;99.90
9847;DHT22;4962;50.084;8.794;2022-12-18T06:31:04;0.40;99.90
9847;DHT22;4962;50.084;8.794;2022-12-18T06:33:32;0.40;99.90
9847;DHT22;4962;50.084;8.794;2022-12-18T06:36:00;0.40;99.90
9847;DHT22;4962;50.084;8.794;2022-12-18T06:38:27;0.40;99.90
9847;DHT22;4962;50.084;8.794;2022-12-18T06:40:54;0.40;99.90
9847;DHT22;4962;50.084;8.794;2022-12-18T06:43:22;0.50;99.90
9847;DHT22;4962;50.084;8.794;2022-12-18T06:45:48;0.50;99.90
9847;DHT22;4962;50.084;8.794;2022-12-18T06:48:19;0.50;99.90
9847;DHT22;4962;50.084;8.794;2022-12-18T06:50:48;0.50;99.90
9847;DHT22;4962;50.084;8.794;2022-12-18T06:53:15;0.50;99.90
9847;DHT22;4962;50.084;8.794;2022-12-18T06:55:42;0.40;99.90
9847;DHT22;4962;50.084;8.794;2022-12-18T06:58:09;0.40;99.90
9847;DHT22;4962;50.084;8.794;2022-12-18T07:00:38;0.40;99.90
9847;DHT22;4962;50.084;8.794;2022-12-18T07:03:05;0.40;99.90
9847;DHT22;4962;50.084;8.794;2022-12-18T07:05:34;0.30;99.90
9847;DHT22;4962;50.084;8.794;2022-12-18T07:08:01;0.30;99.90
9847;DHT22;4962;50.084;8.794;2022-12-18T07:10:28;0.30;99.90
9847;DHT22;4962;50.084;8.794;2022-12-18T07:12:54;0.30;99.90
9847;DHT22;4962;50.084;8.794;2022-12-18T07:15:21;0.30;99.90
9847;DHT22;4962;50.084;8.794;2022-12-18T07:17:48;0.20;99.90
9847;DHT22;4962;50.084;8.794;2022-12-18T07:20:15;0.20;99.90
9847;DHT22;4962;50.084;8.794;2022-12-18T07:22:43;0.10;99.90
9847;DHT22;4962;50.084;8.794;2022-12-18T07:25:10;0.10;99.90
9847;DHT22;4962;50.084;8.794;2022-12-18T07:27:37;0.00;99.90
9847;DHT22;4962;50.084;8.794;2022-12-18T07:30:05;0.00;99.90
9847;DHT22;4962;50.084;8.794;2022-12-18T07:32:33;0.00;99.90
9847;DHT22;4962;50.084;8.794;2022-12-18T07:34:59;0.00;99.90
9847;DHT22;4962;50.084;8.794;2022-12-18T07:37:26;-0.10;99.90
9847;DHT22;4962;50.084;8.794;2022-12-18T07:39:55;0.00;99.90
9847;DHT22;4962;50.084;8.794;2022-12-18T07:42:22;0.00;99.90
9847;DHT22;4962;50.084;8.794;2022-12-18T07:44:58;0.00;99.90
9847;DHT22;4962;50.084;8.794;2022-12-18T07:47:25;0.00;99.90
9847;DHT22;4962;50.084;8.794;2022-12-18T07:49:52;0.10;99.90
9847;DHT22;4962;50.084;8.794;2022-12-18T07:52:19;0.10;99.90
9847;DHT22;4962;50.084;8.794;2022-12-18T07:54:46;0.10;99.90
9847;DHT22;4962;50.084;8.794;2022-12-18T07:57:15;0.20;99.90
9847;DHT22;4962;50.084;8.794;2022-12-18T07:59:42;0.20;99.90
9847;DHT22;4962;50.084;8.794;2022-12-18T08:02:09;0.20;99.90
9847;DHT22;4962;50.084;8.794;2022-12-18T08:04:36;0.30;99.90
9847;DHT22;4962;50.084;8.794;2022-12-18T08:07:03;0.40;99.90
9847;DHT22;4962;50.084;8.794;2022-12-18T08:09:30;0.40;99.90
9847;DHT22;4962;50.084;8.794;2022-12-18T08:11:57;0.50;99.90
9847;DHT22;4962;50.084;8.794;2022-12-18T08:14:26;0.60;99.90
9847;DHT22;4962;50.084;8.794;2022-12-18T08:16:53;0.70;99.90
9847;DHT22;4962;50.084;8.794;2022-12-18T08:19:20;0.80;99.90
9847;DHT22;4962;50.084;8.794;2022-12-18T08:21:47;0.80;99.90
9847;DHT22;4962;50.084;8.794;2022-12-18T08:24:15;0.90;99.90
9847;DHT22;4962;50.084;8.794;2022-12-18T08:26:41;0.90;99.90
9847;DHT22;4962;50.084;8.794;2022-12-18T08:31:54;1.00;99.90
9847;DHT22;4962;50.084;8.794;2022-12-18T08:34:21;1.00;99.90
9847;DHT22;4962;50.084;8.794;2022-12-18T08:36:48;1.10;99.90
9847;DHT22;4962;50.084;8.794;2022-12-18T08:39:15;1.10;99.90
9847;DHT22;4962;50.084;8.794;2022-12-18T08:41:42;1.10;99.90
9847;DHT22;4962;50.084;8.794;2022-12-18T08:44:29;1.10;99.90
9847;DHT22;4962;50.084;8.794;2022-12-18T08:47:05;1.20;99.90
9847;DHT22;4962;50.084;8.794;2022-12-18T08:49:32;1.20;99.90
9847;DHT22;4962;50.084;8.794;2022-12-18T08:51:59;1.20;99.90
9847;DHT22;4962;50.084;8.794;2022-12-18T08:54:28;1.30;99.90
9847;DHT22;4962;50.084;8.794;2022-12-18T08:56:55;1.30;99.90
9847;DHT22;4962;50.084;8.794;2022-12-18T08:59:22;1.30;99.90
9847;DHT22;4962;50.084;8.794;2022-12-18T09:01:49;1.30;99.70
9847;DHT22;4962;50.084;8.794;2022-12-18T09:04:18;1.40;99.70
9847;DHT22;4962;50.084;8.794;2022-12-18T09:06:45;1.50;99.60
9847;DHT22;4962;50.084;8.794;2022-12-18T09:09:12;1.50;99.40
9847;DHT22;4962;50.084;8.794;2022-12-18T09:11:39;1.60;99.30
9847;DHT22;4962;50.084;8.794;2022-12-18T09:14:06;1.70;99.20
9847;DHT22;4962;50.084;8.794;2022-12-18T09:16:33;1.80;99.00
9847;DHT22;4962;50.084;8.794;2022-12-18T09:19:02;1.80;98.80
9847;DHT22;4962;50.084;8.794;2022-12-18T09:21:32;1.90;98.70
9847;DHT22;4962;50.084;8.794;2022-12-18T09:23:59;2.00;98.50
9847;DHT22;4962;50.084;8.794;2022-12-18T09:26:27;2.00;98.30
9847;DHT22;4962;50.084;8.794;2022-12-18T09:28:54;2.10;98.20
9847;DHT22;4962;50.084;8.794;2022-12-18T09:31:22;2.20;98.00
9847;DHT22;4962;50.084;8.794;2022-12-18T09:33:49;2.20;97.80
9847;DHT22;4962;50.084;8.794;2022-12-18T09:36:17;2.20;97.70
9847;DHT22;4962;50.084;8.794;2022-12-18T09:38:46;2.30;97.60
9847;DHT22;4962;50.084;8.794;2022-12-18T09:41:24;2.40;97.50
9847;DHT22;4962;50.084;8.794;2022-12-18T09:43:57;2.40;97.20
9847;DHT22;4962;50.084;8.794;2022-12-18T09:46:29;2.40;97.10
9847;DHT22;4962;50.084;8.794;2022-12-18T09:48:59;2.50;96.90
9847;DHT22;4962;50.084;8.794;2022-12-18T09:51:29;2.50;96.80
9847;DHT22;4962;50.084;8.794;2022-12-18T09:54:03;2.60;96.70
9847;DHT22;4962;50.084;8.794;2022-12-18T09:56:34;2.60;96.50
9847;DHT22;4962;50.084;8.794;2022-12-18T09:59:03;2.70;96.30
9847;DHT22;4962;50.084;8.794;2022-12-18T10:01:32;2.70;96.00
9847;DHT22;4962;50.084;8.794;2022-12-18T10:03:59;2.70;95.90
9847;DHT22;4962;50.084;8.794;2022-12-18T10:06:32;2.80;95.80
9847;DHT22;4962;50.084;8.794;2022-12-18T10:09:07;2.80;95.60
9847;DHT22;4962;50.084;8.794;2022-12-18T10:11:43;2.90;95.50
9847;DHT22;4962;50.084;8.794;2022-12-18T10:14:21;3.00;95.40
9847;DHT22;4962;50.084;8.794;2022-12-18T10:16:59;3.00;95.20
9847;DHT22;4962;50.084;8.794;2022-12-18T10:19:37;3.10;95.10
9847;DHT22;4962;50.084;8.794;2022-12-18T10:22:15;3.10;94.90
9847;DHT22;4962;50.084;8.794;2022-12-18T10:24:53;3.20;94.80
9847;DHT22;4962;50.084;8.794;2022-12-18T10:27:24;3.30;94.70
9847;DHT22;4962;50.084;8.794;2022-12-18T10:29:52;3.30;94.50
9847;DHT22;4962;50.084;8.794;2022-12-18T10:32:21;3.40;94.40
9847;DHT22;4962;50.084;8.794;2022-12-18T10:34:49;3.50;94.30
9847;DHT22;4962;50.084;8.794;2022-12-18T10:37:19;3.50;94.10
9847;DHT22;4962;50.084;8.794;2022-12-18T10:40:06;3.60;94.00
9847;DHT22;4962;50.084;8.794;2022-12-18T10:42:33;3.60;93.80
9847;DHT22;4962;50.084;8.794;2022-12-18T10:45:02;3.70;93.70
9847;DHT22;4962;50.084;8.794;2022-12-18T10:47:30;3.80;93.60
9847;DHT22;4962;50.084;8.794;2022-12-18T10:49:57;3.80;93.40
9847;DHT22;4962;50.084;8.794;2022-12-18T10:52:27;3.90;93.20
9847;DHT22;4962;50.084;8.794;2022-12-18T10:55:02;3.90;93.00
9847;DHT22;4962;50.084;8.794;2022-12-18T10:57:33;4.00;92.80
9847;DHT22;4962;50.084;8.794;2022-12-18T11:00:25;4.10;92.70
9847;DHT22;4962;50.084;8.794;2022-12-18T11:02:53;4.10;92.50
9847;DHT22;4962;50.084;8.794;2022-12-18T11:05:29;4.10;92.40
9847;DHT22;4962;50.084;8.794;2022-12-18T11:07:57;4.20;92.30
9847;DHT22;4962;50.084;8.794;2022-12-18T11:10:30;4.20;92.10
9847;DHT22;4962;50.084;8.794;2022-12-18T11:13:09;4.20;92.00
9847;DHT22;4962;50.084;8.794;2022-12-18T11:15:40;4.30;91.90
9847;DHT22;4962;50.084;8.794;2022-12-18T11:18:16;4.40;91.80
9847;DHT22;4962;50.084;8.794;2022-12-18T11:20:50;4.40;91.60
9847;DHT22;4962;50.084;8.794;2022-12-18T11:23:19;4.50;91.50
9847;DHT22;4962;50.084;8.794;2022-12-18T11:25:55;4.50;91.40
9847;DHT22;4962;50.084;8.794;2022-12-18T11:28:28;4.50;91.20
9847;DHT22;4962;50.084;8.794;2022-12-18T11:31:12;4.60;91.10
9847;DHT22;4962;50.084;8.794;2022-12-18T11:33:47;4.60;91.00
9847;DHT22;4962;50.084;8.794;2022-12-18T11:36:16;4.70;90.90
9847;DHT22;4962;50.084;8.794;2022-12-18T11:38:52;4.80;90.70
9847;DHT22;4962;50.084;8.794;2022-12-18T11:41:27;4.80;90.60
9847;DHT22;4962;50.084;8.794;2022-12-18T11:44:11;4.90;90.50
9847;DHT22;4962;50.084;8.794;2022-12-18T11:46:45;5.00;90.40
9847;DHT22;4962;50.084;8.794;2022-12-18T11:49:17;5.00;90.20
9847;DHT22;4962;50.084;8.794;2022-12-18T11:51:48;5.10;90.10
9847;DHT22;4962;50.084;8.794;2022-12-18T11:54:16;5.10;89.90
9847;DHT22;4962;50.084;8.794;2022-12-18T11:56:48;5.20;89.70
9847;DHT22;4962;50.084;8.794;2022-12-18T11:59:25;5.30;89.50
9847;DHT22;4962;50.084;8.794;2022-12-18T12:02:01;5.30;89.20
9847;DHT22;4962;50.084;8.794;2022-12-18T12:04:56;5.40;89.00
9847;DHT22;4962;50.084;8.794;2022-12-18T12:07:37;5.50;88.60
9847;DHT22;4962;50.084;8.794;2022-12-18T12:10:16;5.50;88.30
9847;DHT22;4962;50.084;8.794;2022-12-18T12:13:00;5.60;88.10
9847;DHT22;4962;50.084;8.794;2022-12-18T12:15:37;5.70;87.80
9847;DHT22;4962;50.084;8.794;2022-12-18T12:18:09;5.80;87.60
9847;DHT22;4962;50.084;8.794;2022-12-18T12:20:46;5.90;87.50
9847;DHT22;4962;50.084;8.794;2022-12-18T12:23:25;6.00;87.40
9847;DHT22;4962;50.084;8.794;2022-12-18T12:25:59;6.10;87.00
9847;DHT22;4962;50.084;8.794;2022-12-18T12:28:44;6.10;86.50
9847;DHT22;4962;50.084;8.794;2022-12-18T12:31:20;6.10;86.10
9847;DHT22;4962;50.084;8.794;2022-12-18T12:33:52;6.20;85.50
9847;DHT22;4962;50.084;8.794;2022-12-18T12:36:28;6.20;85.00
9847;DHT22;4962;50.084;8.794;2022-12-18T12:39:02;6.20;84.50
9847;DHT22;4962;50.084;8.794;2022-12-18T12:41:33;6.20;84.00
9847;DHT22;4962;50.084;8.794;2022-12-18T12:44:23;6.30;83.70
9847;DHT22;4962;50.084;8.794;2022-12-18T12:46:57;6.30;83.20
9847;DHT22;4962;50.084;8.794;2022-12-18T12:49:27;6.20;82.70
9847;DHT22;4962;50.084;8.794;2022-12-18T12:51:58;6.30;82.30
9847;DHT22;4962;50.084;8.794;2022-12-18T12:54:27;6.20;81.80
9847;DHT22;4962;50.084;8.794;2022-12-18T12:56:59;6.20;81.50
9847;DHT22;4962;50.084;8.794;2022-12-18T12:59:34;6.10;81.10
9847;DHT22;4962;50.084;8.794;2022-12-18T13:02:10;6.10;81.10
9847;DHT22;4962;50.084;8.794;2022-12-18T13:04:49;6.10;80.90
9847;DHT22;4962;50.084;8.794;2022-12-18T13:07:23;6.10;80.80
9847;DHT22;4962;50.084;8.794;2022-12-18T13:10:12;6.10;80.50
9847;DHT22;4962;50.084;8.794;2022-12-18T13:12:51;6.00;80.20
9847;DHT22;4962;50.084;8.794;2022-12-18T13:15:30;6.00;80.30
9847;DHT22;4962;50.084;8.794;2022-12-18T13:18:09;6.00;80.40
9847;DHT22;4962;50.084;8.794;2022-12-18T13:20:40;6.00;80.50
9847;DHT22;4962;50.084;8.794;2022-12-18T13:23:29;6.00;80.50
9847;DHT22;4962;50.084;8.794;2022-12-18T13:25:57;5.90;80.10
9847;DHT22;4962;50.084;8.794;2022-12-18T13:28:51;5.90;80.10
9847;DHT22;4962;50.084;8.794;2022-12-18T13:34:36;5.70;80.20
9847;DHT22;4962;50.084;8.794;2022-12-18T13:37:40;5.70;80.60
9847;DHT22;4962;50.084;8.794;2022-12-18T13:43:39;5.70;81.20
9847;DHT22;4962;50.084;8.794;2022-12-18T13:46:23;5.60;81.10
9847;DHT22;4962;50.084;8.794;2022-12-18T13:48:57;5.60;81.40
9847;DHT22;4962;50.084;8.794;2022-12-18T13:51:27;5.50;81.30
9847;DHT22;4962;50.084;8.794;2022-12-18T13:53:57;5.50;81.50
9847;DHT22;4962;50.084;8.794;2022-12-18T13:56:26;5.40;81.50
9847;DHT22;4962;50.084;8.794;2022-12-18T13:59:08;5.30;81.70
9847;DHT22;4962;50.084;8.794;2022-12-18T14:01:42;5.20;81.70
9847;DHT22;4962;50.084;8.794;2022-12-18T14:04:10;5.00;81.90
9847;DHT22;4962;50.084;8.794;2022-12-18T14:06:39;5.00;82.20
9847;DHT22;4962;50.084;8.794;2022-12-18T14:09:12;4.90;82.20
9847;DHT22;4962;50.084;8.794;2022-12-18T14:11:45;4.90;82.50
9847;DHT22;4962;50.084;8.794;2022-12-18T14:14:14;4.80;82.70
9847;DHT22;4962;50.084;8.794;2022-12-18T14:16:44;4.80;82.90
9847;DHT22;4962;50.084;8.794;2022-12-18T14:19:14;4.80;83.30
9847;DHT22;4962;50.084;8.794;2022-12-18T14:21:47;4.80;83.80
9847;DHT22;4962;50.084;8.794;2022-12-18T14:24:16;4.80;84.00
9847;DHT22;4962;50.084;8.794;2022-12-18T14:26:44;4.90;84.30
9847;DHT22;4962;50.084;8.794;2022-12-18T14:29:23;4.90;84.30
9847;DHT22;4962;50.084;8.794;2022-12-18T14:32:08;4.90;84.10
9847;DHT22;4962;50.084;8.794;2022-12-18T14:34:36;4.80;84.10
9847;DHT22;4962;50.084;8.794;2022-12-18T14:37:04;4.80;84.10
9847;DHT22;4962;50.084;8.794;2022-12-18T14:39:32;4.80;83.90
9847;DHT22;4962;50.084;8.794;2022-12-18T14:41:59;4.70;84.00
9847;DHT22;4962;50.084;8.794;2022-12-18T14:44:26;4.80;84.20
9847;DHT22;4962;50.084;8.794;2022-12-18T14:46:55;4.80;84.30
9847;DHT22;4962;50.084;8.794;2022-12-18T14:49:24;4.90;84.40
9847;DHT22;4962;50.084;8.794;2022-12-18T14:51:55;4.90;84.30
9847;DHT22;4962;50.084;8.794;2022-12-18T14:54:24;4.90;84.20
9847;DHT22;4962;50.084;8.794;2022-12-18T14:56:56;4.90;84.20
9847;DHT22;4962;50.084;8.794;2022-12-18T14:59:26;5.00;84.20
9847;DHT22;4962;50.084;8.794;2022-12-18T15:01:58;5.00;84.10
9847;DHT22;4962;50.084;8.794;2022-12-18T15:04:28;5.00;84.00
9847;DHT22;4962;50.084;8.794;2022-12-18T15:07:08;5.00;84.10
9847;DHT22;4962;50.084;8.794;2022-12-18T15:12:34;4.90;85.00
9847;DHT22;4962;50.084;8.794;2022-12-18T15:18:12;5.00;84.20
9847;DHT22;4962;50.084;8.794;2022-12-18T15:20:43;4.90;84.00
9847;DHT22;4962;50.084;8.794;2022-12-18T15:23:16;4.90;84.00
9847;DHT22;4962;50.084;8.794;2022-12-18T15:25:48;4.90;84.00
9847;DHT22;4962;50.084;8.794;2022-12-18T15:28:22;4.90;84.00
9847;DHT22;4962;50.084;8.794;2022-12-18T15:31:02;4.80;83.90
9847;DHT22;4962;50.084;8.794;2022-12-18T15:33:33;4.90;84.00
9847;DHT22;4962;50.084;8.794;2022-12-18T15:36:04;4.80;83.90
9847;DHT22;4962;50.084;8.794;2022-12-18T15:38:32;4.90;84.00
9847;DHT22;4962;50.084;8.794;2022-12-18T15:40:59;4.80;83.90
9847;DHT22;4962;50.084;8.794;2022-12-18T15:43:28;4.80;84.10
9847;DHT22;4962;50.084;8.794;2022-12-18T15:46:01;4.70;84.10
9847;DHT22;4962;50.084;8.794;2022-12-18T15:48:29;4.70;84.40
9847;DHT22;4962;50.084;8.794;2022-12-18T15:51:00;4.70;84.60
9847;DHT22;4962;50.084;8.794;2022-12-18T15:53:32;4.70;84.90
9847;DHT22;4962;50.084;8.794;2022-12-18T15:56:02;4.70;85.20
9847;DHT22;4962;50.084;8.794;2022-12-18T15:58:48;4.70;85.30
9847;DHT22;4962;50.084;8.794;2022-12-18T16:01:15;4.70;85.60
9847;DHT22;4962;50.084;8.794;2022-12-18T16:03:42;4.60;85.80
9847;DHT22;4962;50.084;8.794;2022-12-18T16:06:09;4.60;86.40
9847;DHT22;4962;50.084;8.794;2022-12-18T16:08:36;4.60;87.00
9847;DHT22;4962;50.084;8.794;2022-12-18T16:11:04;4.60;87.40
9847;DHT22;4962;50.084;8.794;2022-12-18T16:13:31;4.70;87.90
9847;DHT22;4962;50.084;8.794;2022-12-18T16:16:00;4.60;87.90
9847;DHT22;4962;50.084;8.794;2022-12-18T16:18:27;4.60;89.10
9847;DHT22;4962;50.084;8.794;2022-12-18T16:20:54;4.60;88.80
9847;DHT22;4962;50.084;8.794;2022-12-18T16:23:47;4.70;89.20
9847;DHT22;4962;50.084;8.794;2022-12-18T16:26:14;4.70;89.40
9847;DHT22;4962;50.084;8.794;2022-12-18T16:28:41;4.80;89.70
9847;DHT22;4962;50.084;8.794;2022-12-18T16:31:17;4.80;90.00
9847;DHT22;4962;50.084;8.794;2022-12-18T16:33:44;4.70;90.10
9847;DHT22;4962;50.084;8.794;2022-12-18T16:36:11;4.80;90.40
9847;DHT22;4962;50.084;8.794;2022-12-18T16:38:40;4.80;90.60
9847;DHT22;4962;50.084;8.794;2022-12-18T16:41:18;4.80;90.60
9847;DHT22;4962;50.084;8.794;2022-12-18T16:44:00;4.80;90.80
9847;DHT22;4962;50.084;8.794;2022-12-18T16:46:30;4.80;91.00
9847;DHT22;4962;50.084;8.794;2022-12-18T16:48:57;4.80;91.10
9847;DHT22;4962;50.084;8.794;2022-12-18T16:51:25;4.90;91.30
9847;DHT22;4962;50.084;8.794;2022-12-18T16:53:52;4.80;91.30
9847;DHT22;4962;50.084;8.794;2022-12-18T16:56:19;4.90;91.50